sensor_id;sensor_type;location;lat;lon;timestamp;temperature;humidity
34927;DHT22;21132;48.308;14.274;2023-04-01T00:01:01;13.30;61.70
34927;DHT22;21132;48.308;14.274;2023-04-01T00:03:28;13.30;61.70
34927;DHT22;21132;48.308;14.274;2023-04-01T00:05:55;13.40;61.90
34927;DHT22;21132;48.308;14.274;2023-04-01T00:08:22;13.40;62.00
34927;DHT22;21132;48.308;14.274;2023-04-01T00:10:48;13.40;62.70
34927;DHT22;21132;48.308;14.274;2023-04-01T00:13:13;13.40;61.90
34927;DHT22;21132;48.308;14.274;2023-04-01T00:15:40;13.50;61.80
34927;DHT22;21132;48.308;14.274;2023-04-01T00:18:06;13.40;61.70
34927;DHT22;21132;48.308;14.274;2023-04-01T00:20:32;13.50;61.80
34927;DHT22;21132;48.308;14.274;2023-04-01T00:22:58;13.50;61.90
34927;DHT22;21132;48.308;14.274;2023-04-01T00:25:24;13.50;62.10
34927;DHT22;21132;48.308;14.274;2023-04-01T00:27:50;13.50;62.30
34927;DHT22;21132;48.308;14.274;2023-04-01T00:30:16;13.40;62.10
34927;DHT22;21132;48.308;14.274;2023-04-01T00:32:42;13.40;62.20
34927;DHT22;21132;48.308;14.274;2023-04-01T00:35:08;13.40;62.20
34927;DHT22;21132;48.308;14.274;2023-04-01T00:37:35;13.30;61.90
34927;DHT22;21132;48.308;14.274;2023-04-01T00:40:04;13.20;61.70
34927;DHT22;21132;48.308;14.274;2023-04-01T00:42:31;13.20;62.10
34927;DHT22;21132;48.308;14.274;2023-04-01T00:44:57;13.20;63.10
34927;DHT22;21132;48.308;14.274;2023-04-01T00:47:25;13.30;62.50
34927;DHT22;21132;48.308;14.274;2023-04-01T00:49:53;13.30;62.70
34927;DHT22;21132;48.308;14.274;2023-04-01T00:52:23;13.30;62.80
34927;DHT22;21132;48.308;14.274;2023-04-01T00:54:55;13.40;62.90
34927;DHT22;21132;48.308;14.274;2023-04-01T00:57:25;13.40;63.10
34927;DHT22;21132;48.308;14.274;2023-04-01T00:59:55;13.40;63.10
34927;DHT22;21132;48.308;14.274;2023-04-01T01:02:30;13.40;63.10
34927;DHT22;21132;48.308;14.274;2023-04-01T01:04:57;13.40;63.10
34927;DHT22;21132;48.308;14.274;2023-04-01T01:10:20;13.50;63.30
34927;DHT22;21132;48.308;14.274;2023-04-01T01:13:14;13.50;63.50
34927;DHT22;21132;48.308;14.274;2023-04-01T01:18:31;13.40;63.50
34927;DHT22;21132;48.308;14.274;2023-04-01T01:34:46;13.30;64.50
34927;DHT22;21132;48.308;14.274;2023-04-01T01:37:18;13.30;64.50
34927;DHT22;21132;48.308;14.274;2023-04-01T01:39:51;13.30;64.40
34927;DHT22;21132;48.308;14.274;2023-04-01T01:42:19;13.30;64.60
34927;DHT22;21132;48.308;14.274;2023-04-01T01:44:47;13.30;64.80
34927;DHT22;21132;48.308;14.274;2023-04-01T01:47:16;13.30;65.10
34927;DHT22;21132;48.308;14.274;2023-04-01T01:49:43;13.30;65.10
34927;DHT22;21132;48.308;14.274;2023-04-01T01:52:12;13.20;65.10
34927;DHT22;21132;48.308;14.274;2023-04-01T01:54:50;13.20;65.10
34927;DHT22;21132;48.308;14.274;2023-04-01T01:57:18;13.20;65.00
34927;DHT22;21132;48.308;14.274;2023-04-01T01:59:46;13.20;65.00
34927;DHT22;21132;48.308;14.274;2023-04-01T02:02:13;13.20;65.00
34927;DHT22;21132;48.308;14.274;2023-04-01T02:04:43;13.20;65.10
34927;DHT22;21132;48.308;14.274;2023-04-01T02:07:20;13.10;65.00
34927;DHT22;21132;48.308;14.274;2023-04-01T02:09:48;13.10;65.10
34927;DHT22;21132;48.308;14.274;2023-04-01T02:12:15;13.10;65.00
34927;DHT22;21132;48.308;14.274;2023-04-01T02:14:52;13.00;65.00
34927;DHT22;21132;48.308;14.274;2023-04-01T02:17:25;13.00;65.10
34927;DHT22;21132;48.308;14.274;2023-04-01T02:20:08;13.00;65.20
34927;DHT22;21132;48.308;14.274;2023-04-01T02:22:38;12.90;65.30
34927;DHT22;21132;48.308;14.274;2023-04-01T02:25:12;12.90;65.30
34927;DHT22;21132;48.308;14.274;2023-04-01T02:27:40;12.90;65.50
34927;DHT22;21132;48.308;14.274;2023-04-01T02:30:09;12.90;65.60
34927;DHT22;21132;48.308;14.274;2023-04-01T02:32:35;12.90;65.80
34927;DHT22;21132;48.308;14.274;2023-04-01T02:35:11;12.80;65.70
34927;DHT22;21132;48.308;14.274;2023-04-01T02:37:38;12.80;65.60
34927;DHT22;21132;48.308;14.274;2023-04-01T02:40:11;12.80;65.30
34927;DHT22;21132;48.308;14.274;2023-04-01T02:42:37;12.70;65.10
34927;DHT22;21132;48.308;14.274;2023-04-01T02:45:04;12.70;65.10
34927;DHT22;21132;48.308;14.274;2023-04-01T02:47:30;12.60;64.90
34927;DHT22;21132;48.308;14.274;2023-04-01T02:49:56;12.60;65.00
34927;DHT22;21132;48.308;14.274;2023-04-01T02:52:30;12.50;64.80
34927;DHT22;21132;48.308;14.274;2023-04-01T02:54:56;12.50;64.80
34927;DHT22;21132;48.308;14.274;2023-04-01T02:57:22;12.50;64.60
34927;DHT22;21132;48.308;14.274;2023-04-01T02:59:48;12.50;64.70
34927;DHT22;21132;48.308;14.274;2023-04-01T03:02:14;12.60;64.90
34927;DHT22;21132;48.308;14.274;2023-04-01T03:04:41;12.50;65.10
34927;DHT22;21132;48.308;14.274;2023-04-01T03:07:07;12.50;64.80
34927;DHT22;21132;48.308;14.274;2023-04-01T03:09:36;12.50;64.80
34927;DHT22;21132;48.308;14.274;2023-04-01T03:12:01;12.50;64.80
34927;DHT22;21132;48.308;14.274;2023-04-01T03:14:27;12.50;64.70
34927;DHT22;21132;48.308;14.274;2023-04-01T03:16:53;12.50;64.90
34927;DHT22;21132;48.308;14.274;2023-04-01T03:19:19;12.50;65.20
34927;DHT22;21132;48.308;14.274;2023-04-01T03:21:44;12.50;65.40
34927;DHT22;21132;48.308;14.274;2023-04-01T03:24:10;12.50;65.40
34927;DHT22;21132;48.308;14.274;2023-04-01T03:26:36;12.60;65.60
34927;DHT22;21132;48.308;14.274;2023-04-01T03:29:02;12.60;65.70
34927;DHT22;21132;48.308;14.274;2023-04-01T03:31:27;12.60;65.70
34927;DHT22;21132;48.308;14.274;2023-04-01T03:33:53;12.60;65.60
34927;DHT22;21132;48.308;14.274;2023-04-01T03:36:19;12.60;65.50
34927;DHT22;21132;48.308;14.274;2023-04-01T03:38:45;12.70;65.50
34927;DHT22;21132;48.308;14.274;2023-04-01T03:41:15;12.70;65.40
34927;DHT22;21132;48.308;14.274;2023-04-01T03:43:42;12.70;65.30
34927;DHT22;21132;48.308;14.274;2023-04-01T03:46:08;12.70;65.30
34927;DHT22;21132;48.308;14.274;2023-04-01T03:48:34;12.70;65.00
34927;DHT22;21132;48.308;14.274;2023-04-01T03:51:00;12.70;65.10
34927;DHT22;21132;48.308;14.274;2023-04-01T03:53:26;12.70;64.90
34927;DHT22;21132;48.308;14.274;2023-04-01T03:55:52;12.70;65.00
34927;DHT22;21132;48.308;14.274;2023-04-01T03:58:19;12.60;65.00
34927;DHT22;21132;48.308;14.274;2023-04-01T04:00:45;12.70;65.20
34927;DHT22;21132;48.308;14.274;2023-04-01T04:03:11;12.70;65.00
34927;DHT22;21132;48.308;14.274;2023-04-01T04:05:37;12.60;65.10
34927;DHT22;21132;48.308;14.274;2023-04-01T04:08:03;12.60;65.20
34927;DHT22;21132;48.308;14.274;2023-04-01T04:10:28;12.60;65.20
34927;DHT22;21132;48.308;14.274;2023-04-01T04:12:55;12.60;65.40
34927;DHT22;21132;48.308;14.274;2023-04-01T04:15:21;12.60;65.30
34927;DHT22;21132;48.308;14.274;2023-04-01T04:17:47;12.60;65.20
34927;DHT22;21132;48.308;14.274;2023-04-01T04:20:13;12.60;65.10
34927;DHT22;21132;48.308;14.274;2023-04-01T04:22:39;12.60;65.30
34927;DHT22;21132;48.308;14.274;2023-04-01T04:25:06;12.60;65.40
34927;DHT22;21132;48.308;14.274;2023-04-01T04:27:32;12.50;65.30
34927;DHT22;21132;48.308;14.274;2023-04-01T04:29:58;12.50;65.40
34927;DHT22;21132;48.308;14.274;2023-04-01T04:32:23;12.50;65.60
34927;DHT22;21132;48.308;14.274;2023-04-01T04:34:49;12.50;65.80
34927;DHT22;21132;48.308;14.274;2023-04-01T04:37:15;12.50;65.90
34927;DHT22;21132;48.308;14.274;2023-04-01T04:39:41;12.50;66.00
34927;DHT22;21132;48.308;14.274;2023-04-01T04:42:07;12.60;66.00
34927;DHT22;21132;48.308;14.274;2023-04-01T04:44:32;12.60;65.90
34927;DHT22;21132;48.308;14.274;2023-04-01T04:46:58;12.60;65.90
34927;DHT22;21132;48.308;14.274;2023-04-01T04:49:25;12.60;65.90
34927;DHT22;21132;48.308;14.274;2023-04-01T04:51:51;12.60;65.90
34927;DHT22;21132;48.308;14.274;2023-04-01T04:54:17;12.60;65.90
34927;DHT22;21132;48.308;14.274;2023-04-01T04:56:43;12.70;66.00
34927;DHT22;21132;48.308;14.274;2023-04-01T04:59:09;12.70;66.00
34927;DHT22;21132;48.308;14.274;2023-04-01T05:01:35;12.70;66.00
34927;DHT22;21132;48.308;14.274;2023-04-01T05:04:01;12.70;66.00
34927;DHT22;21132;48.308;14.274;2023-04-01T05:06:27;12.70;66.00
34927;DHT22;21132;48.308;14.274;2023-04-01T05:08:55;12.70;66.10
34927;DHT22;21132;48.308;14.274;2023-04-01T05:11:21;12.70;66.00
34927;DHT22;21132;48.308;14.274;2023-04-01T05:13:47;12.70;66.00
34927;DHT22;21132;48.308;14.274;2023-04-01T05:16:16;12.70;66.10
34927;DHT22;21132;48.308;14.274;2023-04-01T05:18:42;12.80;66.20
34927;DHT22;21132;48.308;14.274;2023-04-01T05:21:10;12.80;66.20
34927;DHT22;21132;48.308;14.274;2023-04-01T05:23:36;12.80;66.20
34927;DHT22;21132;48.308;14.274;2023-04-01T05:26:06;12.90;66.30
34927;DHT22;21132;48.308;14.274;2023-04-01T05:28:32;12.90;67.10
34927;DHT22;21132;48.308;14.274;2023-04-01T05:30:59;12.90;66.30
34927;DHT22;21132;48.308;14.274;2023-04-01T05:33:26;13.00;66.30
34927;DHT22;21132;48.308;14.274;2023-04-01T05:35:53;13.00;66.10
34927;DHT22;21132;48.308;14.274;2023-04-01T05:38:18;13.00;65.90
34927;DHT22;21132;48.308;14.274;2023-04-01T05:40:44;13.00;65.80
34927;DHT22;21132;48.308;14.274;2023-04-01T05:43:11;13.10;65.80
34927;DHT22;21132;48.308;14.274;2023-04-01T05:45:37;13.20;65.90
34927;DHT22;21132;48.308;14.274;2023-04-01T05:48:03;13.20;65.70
34927;DHT22;21132;48.308;14.274;2023-04-01T05:50:29;13.30;65.50
34927;DHT22;21132;48.308;14.274;2023-04-01T05:52:55;13.30;65.20
34927;DHT22;21132;48.308;14.274;2023-04-01T05:55:21;13.40;64.80
34927;DHT22;21132;48.308;14.274;2023-04-01T05:57:47;13.50;64.20
34927;DHT22;21132;48.308;14.274;2023-04-01T06:00:15;13.50;62.70
34927;DHT22;21132;48.308;14.274;2023-04-01T06:02:41;13.50;62.40
34927;DHT22;21132;48.308;14.274;2023-04-01T06:05:19;13.60;61.70
34927;DHT22;21132;48.308;14.274;2023-04-01T06:07:46;13.70;61.60
34927;DHT22;21132;48.308;14.274;2023-04-01T06:10:16;13.70;60.80
34927;DHT22;21132;48.308;14.274;2023-04-01T06:12:56;13.70;60.90
34927;DHT22;21132;48.308;14.274;2023-04-01T06:15:40;13.70;61.10
34927;DHT22;21132;48.308;14.274;2023-04-01T06:18:24;13.70;60.30
34927;DHT22;21132;48.308;14.274;2023-04-01T06:23:58;13.70;60.40
34927;DHT22;21132;48.308;14.274;2023-04-01T06:26:49;13.70;60.60
34927;DHT22;21132;48.308;14.274;2023-04-01T06:32:09;13.80;60.70
34927;DHT22;21132;48.308;14.274;2023-04-01T06:37:26;13.90;60.40
34927;DHT22;21132;48.308;14.274;2023-04-01T06:40:03;13.80;60.00
34927;DHT22;21132;48.308;14.274;2023-04-01T06:45:31;14.00;60.00
34927;DHT22;21132;48.308;14.274;2023-04-01T06:56:05;14.20;59.60
34927;DHT22;21132;48.308;14.274;2023-04-01T06:58:39;14.30;58.80
34927;DHT22;21132;48.308;14.274;2023-04-01T07:01:10;14.40;58.90
34927;DHT22;21132;48.308;14.274;2023-04-01T07:03:47;14.50;58.70
34927;DHT22;21132;48.308;14.274;2023-04-01T07:06:34;14.60;58.20
34927;DHT22;21132;48.308;14.274;2023-04-01T07:09:05;14.70;57.90
34927;DHT22;21132;48.308;14.274;2023-04-01T07:11:34;14.80;57.60
34927;DHT22;21132;48.308;14.274;2023-04-01T07:16:51;15.00;57.10
34927;DHT22;21132;48.308;14.274;2023-04-01T07:25:04;15.30;56.80
34927;DHT22;21132;48.308;14.274;2023-04-01T07:27:30;15.40;56.10
34927;DHT22;21132;48.308;14.274;2023-04-01T07:29:57;15.40;55.70
34927;DHT22;21132;48.308;14.274;2023-04-01T07:32:39;15.50;55.70
34927;DHT22;21132;48.308;14.274;2023-04-01T07:35:19;15.50;55.60
34927;DHT22;21132;48.308;14.274;2023-04-01T07:45:49;15.60;54.20
34927;DHT22;21132;48.308;14.274;2023-04-01T07:48:55;15.60;54.10
34927;DHT22;21132;48.308;14.274;2023-04-01T07:54:29;15.70;53.60
34927;DHT22;21132;48.308;14.274;2023-04-01T08:00:08;15.90;53.70
34927;DHT22;21132;48.308;14.274;2023-04-01T08:03:04;15.90;53.60
34927;DHT22;21132;48.308;14.274;2023-04-01T08:05:28;16.00;53.40
34927;DHT22;21132;48.308;14.274;2023-04-01T08:10:45;16.10;52.30
34927;DHT22;21132;48.308;14.274;2023-04-01T08:15:48;16.00;52.50
34927;DHT22;21132;48.308;14.274;2023-04-01T08:21:34;16.00;52.50
34927;DHT22;21132;48.308;14.274;2023-04-01T08:24:11;16.00;51.80
34927;DHT22;21132;48.308;14.274;2023-04-01T08:26:46;15.90;51.70
34927;DHT22;21132;48.308;14.274;2023-04-01T08:29:36;15.80;51.70
34927;DHT22;21132;48.308;14.274;2023-04-01T08:32:10;15.70;51.40
34927;DHT22;21132;48.308;14.274;2023-04-01T08:34:40;15.70;51.90
34927;DHT22;21132;48.308;14.274;2023-04-01T08:37:31;15.70;51.90
34927;DHT22;21132;48.308;14.274;2023-04-01T08:46:03;15.70;51.60
34927;DHT22;21132;48.308;14.274;2023-04-01T08:51:37;15.80;51.30
34927;DHT22;21132;48.308;14.274;2023-04-01T08:56:59;15.90;51.20
34927;DHT22;21132;48.308;14.274;2023-04-01T09:10:47;16.60;49.90
34927;DHT22;21132;48.308;14.274;2023-04-01T09:13:29;16.70;49.50
34927;DHT22;21132;48.308;14.274;2023-04-01T09:19:29;16.90;48.80
34927;DHT22;21132;48.308;14.274;2023-04-01T09:42:15;17.40;46.40
34927;DHT22;21132;48.308;14.274;2023-04-01T09:45:04;17.40;45.80
34927;DHT22;21132;48.308;14.274;2023-04-01T09:53:41;17.60;46.00
34927;DHT22;21132;48.308;14.274;2023-04-01T10:04:34;17.50;47.70
34927;DHT22;21132;48.308;14.274;2023-04-01T10:18:35;17.20;48.60
34927;DHT22;21132;48.308;14.274;2023-04-01T10:27:04;17.40;49.00
34927;DHT22;21132;48.308;14.274;2023-04-01T10:44:18;18.30;44.20
34927;DHT22;21132;48.308;14.274;2023-04-01T10:47:26;18.30;44.90
34927;DHT22;21132;48.308;14.274;2023-04-01T10:50:15;18.50;44.40
34927;DHT22;21132;48.308;14.274;2023-04-01T11:03:57;18.80;42.70
34927;DHT22;21132;48.308;14.274;2023-04-01T11:12:24;18.90;42.00
34927;DHT22;21132;48.308;14.274;2023-04-01T11:18:11;19.10;41.20
34927;DHT22;21132;48.308;14.274;2023-04-01T11:29:56;19.30;40.40
34927;DHT22;21132;48.308;14.274;2023-04-01T11:40:37;19.20;39.90
34927;DHT22;21132;48.308;14.274;2023-04-01T11:43:21;19.20;39.40
34927;DHT22;21132;48.308;14.274;2023-04-01T12:11:45;19.20;39.70
34927;DHT22;21132;48.308;14.274;2023-04-01T12:14:27;19.20;39.30
34927;DHT22;21132;48.308;14.274;2023-04-01T12:19:46;19.20;39.80
34927;DHT22;21132;48.308;14.274;2023-04-01T12:25:22;19.20;40.60
34927;DHT22;21132;48.308;14.274;2023-04-01T12:30:49;19.10;38.80
34927;DHT22;21132;48.308;14.274;2023-04-01T12:45:00;19.40;39.70
34927;DHT22;21132;48.308;14.274;2023-04-01T12:56:02;19.40;39.30
34927;DHT22;21132;48.308;14.274;2023-04-01T13:01:34;19.30;41.20
34927;DHT22;21132;48.308;14.274;2023-04-01T13:09:44;18.50;48.30
34927;DHT22;21132;48.308;14.274;2023-04-01T13:12:36;18.30;49.50
34927;DHT22;21132;48.308;14.274;2023-04-01T13:15:44;18.10;49.30
34927;DHT22;21132;48.308;14.274;2023-04-01T13:18:28;17.80;50.30
34927;DHT22;21132;48.308;14.274;2023-04-01T13:21:10;17.70;51.50
34927;DHT22;21132;48.308;14.274;2023-04-01T13:29:11;17.40;51.30
34927;DHT22;21132;48.308;14.274;2023-04-01T13:31:58;17.40;51.00
34927;DHT22;21132;48.308;14.274;2023-04-01T13:42:53;17.50;51.40
34927;DHT22;21132;48.308;14.274;2023-04-01T13:51:45;18.00;48.60
34927;DHT22;21132;48.308;14.274;2023-04-01T14:00:00;18.30;47.00
34927;DHT22;21132;48.308;14.274;2023-04-01T14:02:49;18.40;46.00
34927;DHT22;21132;48.308;14.274;2023-04-01T14:05:24;18.50;45.30
34927;DHT22;21132;48.308;14.274;2023-04-01T14:08:10;18.60;45.30
34927;DHT22;21132;48.308;14.274;2023-04-01T14:10:53;18.70;45.40
34927;DHT22;21132;48.308;14.274;2023-04-01T14:13:34;18.70;44.90
34927;DHT22;21132;48.308;14.274;2023-04-01T14:32:48;16.70;60.30
34927;DHT22;21132;48.308;14.274;2023-04-01T14:35:40;16.40;62.30
34927;DHT22;21132;48.308;14.274;2023-04-01T14:38:31;16.20;64.60
34927;DHT22;21132;48.308;14.274;2023-04-01T14:41:20;16.20;66.40
34927;DHT22;21132;48.308;14.274;2023-04-01T14:44:51;16.10;67.00
34927;DHT22;21132;48.308;14.274;2023-04-01T14:50:18;15.90;66.30
34927;DHT22;21132;48.308;14.274;2023-04-01T14:58:10;15.70;66.10
34927;DHT22;21132;48.308;14.274;2023-04-01T15:09:16;15.20;65.70
34927;DHT22;21132;48.308;14.274;2023-04-01T15:14:52;15.20;65.50
34927;DHT22;21132;48.308;14.274;2023-04-01T15:29:06;14.90;63.60
34927;DHT22;21132;48.308;14.274;2023-04-01T15:37:02;14.80;62.80
34927;DHT22;21132;48.308;14.274;2023-04-01T15:42:32;14.70;60.80
34927;DHT22;21132;48.308;14.274;2023-04-01T15:47:39;14.70;60.10
34927;DHT22;21132;48.308;14.274;2023-04-01T15:56:07;14.70;59.30
34927;DHT22;21132;48.308;14.274;2023-04-01T16:09:11;14.80;59.10
34927;DHT22;21132;48.308;14.274;2023-04-01T16:12:04;14.80;58.40
34927;DHT22;21132;48.308;14.274;2023-04-01T16:17:49;14.80;58.00
34927;DHT22;21132;48.308;14.274;2023-04-01T16:20:25;14.80;57.40
34927;DHT22;21132;48.308;14.274;2023-04-01T16:23:10;14.80;57.20
34927;DHT22;21132;48.308;14.274;2023-04-01T16:26:05;14.80;56.50
34927;DHT22;21132;48.308;14.274;2023-04-01T16:31:37;14.70;56.70
34927;DHT22;21132;48.308;14.274;2023-04-01T16:36:50;14.80;56.70
34927;DHT22;21132;48.308;14.274;2023-04-01T16:39:28;14.70;56.80
34927;DHT22;21132;48.308;14.274;2023-04-01T16:47:40;14.70;56.90
34927;DHT22;21132;48.308;14.274;2023-04-01T16:55:50;14.70;57.20
34927;DHT22;21132;48.308;14.274;2023-04-01T16:58:27;14.80;57.20
34927;DHT22;21132;48.308;14.274;2023-04-01T17:03:44;14.80;56.90
34927;DHT22;21132;48.308;14.274;2023-04-01T17:17:18;14.70;57.10
34927;DHT22;21132;48.308;14.274;2023-04-01T17:31:20;14.60;57.40
34927;DHT22;21132;48.308;14.274;2023-04-01T17:40:26;14.60;57.30
34927;DHT22;21132;48.308;14.274;2023-04-01T17:43:18;14.60;57.30
34927;DHT22;21132;48.308;14.274;2023-04-01T17:45:54;14.60;57.20
34927;DHT22;21132;48.308;14.274;2023-04-01T17:51:21;14.60;57.30
34927;DHT22;21132;48.308;14.274;2023-04-01T17:57:14;14.60;57.30
34927;DHT22;21132;48.308;14.274;2023-04-01T18:08:33;14.60;57.40
34927;DHT22;21132;48.308;14.274;2023-04-01T18:20:35;14.50;57.40
34927;DHT22;21132;48.308;14.274;2023-04-01T18:23:28;14.50;57.40
34927;DHT22;21132;48.308;14.274;2023-04-01T18:26:40;14.50;57.50
34927;DHT22;21132;48.308;14.274;2023-04-01T18:29:14;14.60;57.40
34927;DHT22;21132;48.308;14.274;2023-04-01T18:31:49;14.50;57.30
34927;DHT22;21132;48.308;14.274;2023-04-01T18:45:35;14.50;58.40
34927;DHT22;21132;48.308;14.274;2023-04-01T18:48:30;14.40;58.50
34927;DHT22;21132;48.308;14.274;2023-04-01T18:51:16;14.40;58.80
34927;DHT22;21132;48.308;14.274;2023-04-01T18:56:41;14.40;58.70
34927;DHT22;21132;48.308;14.274;2023-04-01T18:59:28;14.40;58.60
34927;DHT22;21132;48.308;14.274;2023-04-01T19:07:39;14.30;58.20
34927;DHT22;21132;48.308;14.274;2023-04-01T19:13:11;14.30;58.60
34927;DHT22;21132;48.308;14.274;2023-04-01T19:16:06;14.30;58.60
34927;DHT22;21132;48.308;14.274;2023-04-01T19:21:37;14.20;58.70
34927;DHT22;21132;48.308;14.274;2023-04-01T19:38:36;14.10;59.30
34927;DHT22;21132;48.308;14.274;2023-04-01T19:47:37;14.00;59.30
34927;DHT22;21132;48.308;14.274;2023-04-01T19:50:25;14.10;59.30
34927;DHT22;21132;48.308;14.274;2023-04-01T19:52:56;14.00;59.30
34927;DHT22;21132;48.308;14.274;2023-04-01T20:00:44;14.00;59.90
34927;DHT22;21132;48.308;14.274;2023-04-01T20:03:39;14.00;60.00
34927;DHT22;21132;48.308;14.274;2023-04-01T20:06:22;14.00;60.00
34927;DHT22;21132;48.308;14.274;2023-04-01T20:12:05;14.00;60.10
34927;DHT22;21132;48.308;14.274;2023-04-01T20:20:18;14.00;60.20
34927;DHT22;21132;48.308;14.274;2023-04-01T20:25:26;13.90;60.10
34927;DHT22;21132;48.308;14.274;2023-04-01T20:28:05;13.90;60.20
34927;DHT22;21132;48.308;14.274;2023-04-01T20:34:13;14.00;60.40
34927;DHT22;21132;48.308;14.274;2023-04-01T20:45:40;13.90;60.30
34927;DHT22;21132;48.308;14.274;2023-04-01T20:48:36;13.90;60.30
34927;DHT22;21132;48.308;14.274;2023-04-01T20:51:07;13.80;60.60
34927;DHT22;21132;48.308;14.274;2023-04-01T20:56:52;13.80;60.90
34927;DHT22;21132;48.308;14.274;2023-04-01T20:59:16;13.80;60.60
34927;DHT22;21132;48.308;14.274;2023-04-01T21:02:11;13.80;60.60
34927;DHT22;21132;48.308;14.274;2023-04-01T21:18:58;13.80;61.40
34927;DHT22;21132;48.308;14.274;2023-04-01T21:27:25;13.80;61.60
34927;DHT22;21132;48.308;14.274;2023-04-01T21:30:07;13.80;61.60
34927;DHT22;21132;48.308;14.274;2023-04-01T21:33:08;13.80;61.60
34927;DHT22;21132;48.308;14.274;2023-04-01T21:38:40;13.80;61.70
34927;DHT22;21132;48.308;14.274;2023-04-01T21:44:08;13.70;61.50
34927;DHT22;21132;48.308;14.274;2023-04-01T22:01:11;13.70;62.20
34927;DHT22;21132;48.308;14.274;2023-04-01T22:12:02;13.60;62.90
34927;DHT22;21132;48.308;14.274;2023-04-01T22:14:44;13.60;63.00
34927;DHT22;21132;48.308;14.274;2023-04-01T22:17:23;13.60;62.90
34927;DHT22;21132;48.308;14.274;2023-04-01T22:20:10;13.60;62.40
34927;DHT22;21132;48.308;14.274;2023-04-01T22:25:45;13.60;63.30
34927;DHT22;21132;48.308;14.274;2023-04-01T22:30:52;13.60;63.40
34927;DHT22;21132;48.308;14.274;2023-04-01T22:55:15;13.60;61.70
34927;DHT22;21132;48.308;14.274;2023-04-01T22:57:54;13.60;61.30
34927;DHT22;21132;48.308;14.274;2023-04-01T23:00:28;13.70;60.90
34927;DHT22;21132;48.308;14.274;2023-04-01T23:05:59;13.70;61.50
34927;DHT22;21132;48.308;14.274;2023-04-01T23:08:55;13.70;60.90
34927;DHT22;21132;48.308;14.274;2023-04-01T23:11:33;13.70;60.70
34927;DHT22;21132;48.308;14.274;2023-04-01T23:16:41;13.70;60.50
34927;DHT22;21132;48.308;14.274;2023-04-01T23:19:25;13.60;60.40
34927;DHT22;21132;48.308;14.274;2023-04-01T23:22:07;13.60;60.20
34927;DHT22;21132;48.308;14.274;2023-04-01T23:24:55;13.70;60.30
34927;DHT22;21132;48.308;14.274;2023-04-01T23:27:39;13.70;60.50
34927;DHT22;21132;48.308;14.274;2023-04-01T23:38:23;13.60;60.20
34927;DHT22;21132;48.308;14.274;2023-04-01T23:40:52;13.60;60.30
34927;DHT22;21132;48.308;14.274;2023-04-01T23:43:25;13.50;60.30
34927;DHT22;21132;48.308;14.274;2023-04-01T23:45:56;13.60;60.90
34927;DHT22;21132;48.308;14.274;2023-04-01T23:48:29;13.50;60.90
34927;DHT22;21132;48.308;14.274;2023-04-01T23:50:57;13.50;61.20
34927;DHT22;21132;48.308;14.274;2023-04-01T23:53:30;13.50;61.20
34927;DHT22;21132;48.308;14.274;2023-04-01T23:55:58;13.30;61.20
34927;DHT22;21132;48.308;14.274;2023-04-01T23:58:41;13.40;61.60
